createdAt,value
2018-11-26T00:01:28.927Z,27.50
2018-11-26T00:03:56.438Z,27.00
2018-11-26T00:06:24.005Z,26.73
2018-11-26T00:08:51.546Z,25.92
2018-11-26T00:11:30.655Z,28.60
2018-11-26T00:13:58.306Z,24.98
2018-11-26T00:16:25.823Z,26.20
2018-11-26T00:18:53.343Z,24.67
2018-11-26T00:21:20.894Z,26.37
2018-11-26T00:23:48.427Z,29.18
2018-11-26T00:26:15.918Z,29.35
2018-11-26T00:28:43.487Z,25.85
2018-11-26T00:31:10.983Z,26.23
2018-11-26T00:33:38.513Z,28.55
2018-11-26T00:36:06.211Z,28.75
2018-11-26T00:38:33.772Z,28.38
2018-11-26T00:41:01.280Z,25.08
2018-11-26T00:43:28.858Z,30.35
2018-11-26T00:45:56.328Z,23.50
2018-11-26T00:48:23.850Z,25.37
2018-11-26T00:50:51.319Z,25.68
2018-11-26T00:53:18.838Z,23.67
2018-11-26T00:55:46.392Z,23.60
2018-11-26T00:58:13.845Z,30.08
2018-11-26T01:00:41.379Z,25.68
2018-11-26T01:03:08.823Z,26.48
2018-11-26T01:05:38.042Z,26.12
2018-11-26T01:08:05.793Z,26.57
2018-11-26T01:10:33.413Z,28.17
2018-11-26T01:13:01.002Z,28.73
2018-11-26T01:15:28.566Z,23.92
2018-11-26T01:17:56.062Z,24.47
2018-11-26T01:20:23.575Z,26.15
2018-11-26T01:22:51.105Z,26.10
2018-11-26T01:25:18.650Z,24.23
2018-11-26T01:27:46.098Z,26.87
2018-11-26T01:30:13.692Z,23.95
2018-11-26T01:32:41.308Z,25.75
2018-11-26T01:35:08.923Z,27.22
2018-11-26T01:37:36.447Z,24.43
2018-11-26T01:40:06.651Z,23.73
2018-11-26T01:42:34.132Z,27.27
2018-11-26T01:45:02.167Z,24.55
2018-11-26T01:47:29.614Z,25.77
2018-11-26T01:49:57.151Z,29.40
2018-11-26T01:52:24.596Z,22.25
2018-11-26T01:54:52.143Z,25.25
2018-11-26T01:57:19.587Z,23.47
2018-11-26T01:59:47.137Z,26.82
2018-11-26T02:02:14.647Z,22.45
2018-11-26T02:04:42.142Z,23.90
2018-11-26T02:07:09.703Z,21.05
2018-11-26T02:09:37.195Z,21.93
2018-11-26T02:12:04.924Z,24.57
2018-11-26T02:14:32.447Z,20.77
2018-11-26T02:17:00.010Z,20.30
2018-11-26T02:19:27.480Z,24.45
2018-11-26T02:21:55.021Z,17.73
2018-11-26T02:24:22.479Z,22.20
2018-11-26T02:26:50.038Z,21.77
2018-11-26T02:29:17.505Z,18.12
2018-11-26T02:31:45.136Z,20.50
2018-11-26T02:34:12.605Z,19.07
2018-11-26T02:36:40.135Z,18.57
2018-11-26T02:39:07.660Z,20.20
2018-11-26T02:41:35.181Z,16.80
2018-11-26T02:44:02.730Z,17.95
2018-11-26T02:46:30.220Z,16.97
2018-11-26T02:48:57.811Z,17.42
2018-11-26T02:51:25.297Z,15.98
2018-11-26T02:53:52.905Z,15.70
2018-11-26T02:56:20.380Z,16.95
2018-11-26T02:58:47.913Z,13.88
2018-11-26T03:01:15.471Z,17.80
2018-11-26T03:03:43.031Z,14.70
2018-11-26T03:06:10.505Z,15.48
2018-11-26T03:08:38.041Z,15.18
2018-11-26T03:11:05.557Z,15.00
2018-11-26T03:13:33.155Z,14.05
2018-11-26T03:16:00.844Z,16.80
2018-11-26T03:18:28.379Z,15.30
2018-11-26T03:20:55.899Z,13.45
2018-11-26T03:23:23.359Z,16.10
2018-11-26T03:25:50.871Z,16.67
2018-11-26T03:28:18.372Z,15.30
2018-11-26T03:30:45.910Z,15.95
2018-11-26T03:33:13.387Z,15.15
2018-11-26T03:35:40.943Z,14.95
2018-11-26T03:38:11.885Z,17.25
2018-11-26T03:40:39.452Z,16.73
2018-11-26T03:43:06.990Z,19.80
2018-11-26T03:45:34.525Z,17.90
2018-11-26T03:48:01.991Z,18.80
2018-11-26T03:50:29.560Z,20.20
2018-11-26T03:52:57.023Z,19.67
2018-11-26T03:55:24.535Z,15.83
2018-11-26T03:57:52.076Z,19.45
2018-11-26T04:00:19.522Z,20.25
2018-11-26T04:02:47.018Z,17.67
2018-11-26T04:05:14.461Z,17.45
2018-11-26T04:07:42.018Z,19.62
2018-11-26T04:10:10.523Z,23.70
2018-11-26T04:12:38.052Z,19.85
2018-11-26T04:15:07.441Z,20.52
2018-11-26T04:17:34.982Z,23.02
2018-11-26T04:20:02.469Z,20.72
2018-11-26T04:22:30.005Z,22.00
2018-11-26T04:24:57.458Z,26.40
2018-11-26T04:27:25.002Z,21.87
2018-11-26T04:29:52.458Z,23.73
2018-11-26T04:32:19.993Z,20.00
2018-11-26T04:34:47.457Z,22.07
2018-11-26T04:37:14.961Z,23.73
2018-11-26T04:39:42.432Z,20.25
2018-11-26T04:42:10.047Z,19.42
2018-11-26T04:44:37.630Z,23.10
2018-11-26T04:47:05.171Z,19.90
2018-11-26T04:49:32.703Z,19.95
2018-11-26T04:52:00.169Z,21.77
2018-11-26T04:54:27.727Z,19.05
2018-11-26T04:56:55.173Z,24.15
2018-11-26T04:59:22.715Z,22.93
2018-11-26T05:01:50.174Z,22.17
2018-11-26T05:04:17.767Z,25.43
2018-11-26T05:06:45.272Z,22.55
2018-11-26T05:09:12.770Z,22.35
2018-11-26T05:11:40.264Z,23.62
2018-11-26T05:14:07.851Z,26.15
2018-11-26T05:16:35.390Z,21.97
2018-11-26T05:19:02.866Z,20.68
2018-11-26T05:21:30.390Z,23.83
2018-11-26T05:23:57.861Z,24.87
2018-11-26T05:26:25.410Z,22.20
2018-11-26T05:28:52.890Z,20.00
2018-11-26T05:31:20.462Z,23.87
2018-11-26T05:33:47.922Z,24.50
2018-11-26T05:36:15.471Z,27.42
2018-11-26T05:38:42.935Z,25.60
2018-11-26T05:41:10.494Z,25.00
2018-11-26T05:43:37.982Z,29.07
2018-11-26T05:46:05.611Z,26.80
2018-11-26T05:48:33.097Z,24.98
2018-11-26T05:51:01.012Z,28.45
2018-11-26T05:53:28.554Z,24.32
2018-11-26T05:55:56.143Z,25.32
2018-11-26T05:58:23.590Z,24.90
2018-11-26T06:00:51.126Z,23.18
2018-11-26T06:03:18.619Z,23.90
2018-11-26T06:05:46.191Z,28.98
2018-11-26T06:08:13.659Z,26.95
2018-11-26T06:10:41.181Z,25.20
2018-11-26T06:13:08.829Z,28.12
2018-11-26T06:15:36.315Z,26.37
2018-11-26T06:18:04.018Z,28.50
2018-11-26T06:20:31.526Z,29.23
2018-11-26T06:22:59.094Z,23.70
2018-11-26T06:25:26.610Z,27.93
2018-11-26T06:27:54.199Z,28.75
2018-11-26T06:30:21.678Z,29.12
2018-11-26T06:32:49.221Z,27.98
2018-11-26T06:35:18.930Z,28.57
2018-11-26T06:37:46.486Z,26.35
2018-11-26T06:40:14.089Z,28.50
2018-11-26T06:42:41.736Z,29.90
2018-11-26T06:45:12.710Z,34.13
2018-11-26T06:47:40.755Z,29.35
2018-11-26T06:50:10.164Z,25.75
2018-11-26T06:52:37.731Z,28.00
2018-11-26T06:55:06.861Z,26.15
2018-11-26T06:57:34.320Z,29.15
2018-11-26T07:00:02.152Z,31.00
2018-11-26T07:02:29.614Z,32.40
2018-11-26T07:04:57.154Z,31.48
2018-11-26T07:07:24.622Z,27.85
2018-11-26T07:09:52.171Z,27.05
2018-11-26T07:12:19.663Z,26.23
2018-11-26T07:14:47.271Z,28.95
2018-11-26T07:17:21.335Z,31.95
2018-11-26T07:19:49.019Z,29.30
2018-11-26T07:22:16.522Z,26.87
2018-11-26T07:24:45.083Z,27.45
2018-11-26T07:27:12.562Z,34.60
2018-11-26T07:29:40.116Z,31.45
2018-11-26T07:32:07.597Z,32.10
2018-11-26T07:34:35.103Z,28.02
2018-11-26T07:37:02.727Z,35.25
2018-11-26T07:39:30.278Z,28.47
2018-11-26T07:41:57.794Z,32.15
2018-11-26T07:44:25.236Z,30.12
2018-11-26T07:46:52.892Z,29.05
2018-11-26T07:49:20.373Z,29.50
2018-11-26T07:51:47.923Z,28.73
2018-11-26T07:54:15.434Z,31.37
2018-11-26T07:56:42.968Z,28.50
2018-11-26T07:59:10.435Z,28.17
2018-11-26T08:01:38.036Z,29.32
2018-11-26T08:04:05.606Z,29.30
2018-11-26T08:06:33.178Z,35.08
2018-11-26T08:09:00.786Z,27.73
2018-11-26T08:11:28.378Z,29.98
2018-11-26T08:13:55.915Z,26.45
2018-11-26T08:16:23.454Z,29.87
2018-11-26T08:18:50.949Z,34.08
2018-11-26T08:21:18.494Z,31.25
2018-11-26T08:23:46.031Z,29.95
2018-11-26T08:26:13.482Z,25.25
2018-11-26T08:28:41.055Z,27.32
2018-11-26T08:31:08.519Z,30.08
2018-11-26T08:33:36.069Z,26.45
2018-11-26T08:36:09.305Z,28.42
2018-11-26T08:38:42.574Z,24.75
2018-11-26T08:41:13.982Z,28.77
2018-11-26T08:43:43.732Z,26.50
2018-11-26T08:46:12.370Z,29.48
2018-11-26T08:48:45.684Z,24.12
2018-11-26T08:51:13.186Z,26.30
2018-11-26T08:53:40.754Z,25.15
2018-11-26T08:56:08.238Z,26.07
2018-11-26T08:58:35.841Z,27.62
2018-11-26T09:01:05.210Z,26.45
2018-11-26T09:03:40.283Z,30.20
2018-11-26T09:06:07.755Z,30.50
2018-11-26T09:08:36.242Z,26.52
2018-11-26T09:11:04.538Z,27.17
2018-11-26T09:13:32.099Z,28.92
2018-11-26T09:15:59.658Z,30.75
2018-11-26T09:18:27.183Z,30.60
2018-11-26T09:20:54.725Z,28.00
2018-11-26T09:23:22.192Z,28.07
2018-11-26T09:25:49.763Z,31.07
2018-11-26T09:28:17.255Z,31.23
2018-11-26T09:30:44.822Z,29.87
2018-11-26T09:33:12.283Z,31.45
2018-11-26T09:35:39.845Z,26.93
2018-11-26T09:38:07.357Z,25.23
2018-11-26T09:40:35.024Z,27.55
2018-11-26T09:43:02.551Z,26.00
2018-11-26T09:45:30.137Z,28.77
2018-11-26T09:47:57.623Z,28.38
2018-11-26T09:50:25.137Z,36.35
2018-11-26T09:52:52.676Z,29.87
2018-11-26T09:55:20.196Z,30.32
2018-11-26T09:57:47.742Z,31.60
2018-11-26T10:00:16.381Z,30.25
2018-11-26T10:02:45.100Z,32.98
2018-11-26T10:05:13.938Z,26.37
2018-11-26T10:07:41.535Z,28.30
2018-11-26T10:10:10.380Z,31.95
2018-11-26T10:12:38.442Z,27.50
2018-11-26T10:15:13.588Z,26.27
2018-11-26T10:17:41.184Z,28.77
2018-11-26T10:20:09.593Z,29.80
2018-11-26T10:22:37.225Z,29.37
2018-11-26T10:25:06.171Z,27.67
2018-11-26T10:27:33.599Z,31.90
2018-11-26T10:30:01.407Z,33.23
2018-11-26T10:32:28.967Z,28.95
2018-11-26T10:34:56.441Z,26.17
2018-11-26T10:37:24.006Z,32.48
2018-11-26T10:39:51.589Z,30.12
2018-11-26T10:42:19.132Z,29.95
2018-11-26T10:44:46.711Z,27.40
2018-11-26T10:47:14.194Z,26.60
2018-11-26T10:49:41.740Z,31.55
2018-11-26T10:52:09.231Z,33.50
2018-11-26T10:54:36.847Z,28.70
2018-11-26T10:57:05.015Z,28.35
2018-11-26T10:59:32.555Z,31.75
2018-11-26T11:02:01.032Z,39.80
2018-11-26T11:04:28.803Z,28.92
2018-11-26T11:06:56.334Z,30.57
2018-11-26T11:09:23.928Z,29.63
2018-11-26T11:11:51.406Z,30.10
2018-11-26T11:14:19.009Z,31.90
2018-11-26T11:16:46.475Z,32.63
2018-11-26T11:19:14.050Z,32.98
2018-11-26T11:21:41.553Z,31.85
2018-11-26T11:24:09.133Z,31.93
2018-11-26T11:26:36.724Z,30.02
2018-11-26T11:29:04.244Z,29.98
2018-11-26T11:31:31.793Z,30.12
2018-11-26T11:33:59.334Z,32.90
2018-11-26T11:36:26.911Z,32.38
2018-11-26T11:38:54.435Z,33.25
2018-11-26T11:41:21.999Z,30.08
2018-11-26T11:43:49.551Z,31.60
2018-11-26T11:46:17.091Z,28.25
2018-11-26T11:48:44.567Z,33.65
2018-11-26T11:51:12.124Z,30.60
2018-11-26T11:53:39.594Z,38.63
2018-11-26T11:56:07.159Z,36.58
2018-11-26T11:58:34.631Z,29.57
2018-11-26T12:01:02.358Z,30.35
2018-11-26T12:03:29.823Z,35.78
2018-11-26T12:05:57.387Z,33.53
2018-11-26T12:08:24.878Z,35.30
2018-11-26T12:10:52.473Z,35.78
2018-11-26T12:13:20.012Z,36.42
2018-11-26T12:15:49.412Z,33.45
2018-11-26T12:18:17.017Z,40.52
2018-11-26T12:20:44.488Z,43.70
2018-11-26T12:23:12.097Z,33.13
2018-11-26T12:25:39.573Z,38.13
2018-11-26T12:28:07.209Z,37.60
2018-11-26T12:30:37.429Z,38.55
2018-11-26T12:33:05.306Z,32.35
2018-11-26T12:35:32.992Z,38.73
2018-11-26T12:38:00.827Z,38.67
2018-11-26T12:40:28.359Z,37.78
2018-11-26T12:42:57.132Z,39.25
2018-11-26T12:45:26.788Z,36.48
2018-11-26T12:47:54.368Z,37.63
2018-11-26T12:50:21.956Z,37.70
2018-11-26T12:52:49.502Z,40.83
2018-11-26T12:55:18.156Z,36.73
2018-11-26T12:57:46.639Z,39.38
2018-11-26T13:00:18.404Z,41.42
2018-11-26T13:02:47.372Z,37.23
2018-11-26T13:05:15.990Z,37.13
2018-11-26T13:07:43.568Z,34.98
2018-11-26T13:10:16.394Z,39.53
2018-11-26T13:12:44.266Z,31.82
2018-11-26T13:15:14.609Z,36.20
2018-11-26T13:17:42.222Z,39.95
2018-11-26T13:20:13.588Z,41.10
2018-11-26T13:22:41.132Z,37.80
2018-11-26T13:25:10.141Z,34.98
2018-11-26T13:27:38.372Z,39.65
2018-11-26T13:30:16.956Z,37.42
2018-11-26T13:32:46.026Z,39.80
2018-11-26T13:35:14.438Z,39.25
2018-11-26T13:37:42.076Z,35.50
2018-11-26T13:40:13.611Z,35.08
2018-11-26T13:42:41.381Z,30.48
2018-11-26T13:45:11.132Z,37.10
2018-11-26T13:47:38.859Z,34.45
2018-11-26T13:50:09.642Z,38.88
2018-11-26T13:52:37.251Z,34.48
2018-11-26T13:55:07.140Z,35.48
2018-11-26T13:57:34.739Z,37.75
2018-11-26T14:00:02.461Z,32.80
2018-11-26T14:02:30.027Z,33.70
2018-11-26T14:04:57.504Z,35.23
2018-11-26T14:07:25.092Z,33.20
2018-11-26T14:09:52.588Z,40.25
2018-11-26T14:12:20.069Z,36.93
2018-11-26T14:14:51.697Z,28.90
2018-11-26T14:17:15.313Z,34.00
2018-11-26T14:19:42.801Z,39.33
2018-11-26T14:22:10.634Z,33.53
2018-11-26T14:24:38.060Z,31.60
2018-11-26T14:27:05.745Z,31.30
2018-11-26T14:29:33.297Z,30.65
2018-11-26T14:32:00.819Z,30.08
2018-11-26T14:34:28.396Z,26.95
2018-11-26T14:36:55.897Z,30.57
2018-11-26T14:39:23.452Z,29.98
2018-11-26T14:41:50.944Z,34.40
2018-11-26T14:44:18.514Z,29.02
2018-11-26T14:46:46.020Z,24.85
2018-11-26T14:49:13.607Z,27.07
2018-11-26T14:51:41.116Z,25.35
2018-11-26T14:54:08.715Z,22.87
2018-11-26T14:56:36.271Z,24.95
2018-11-26T14:59:03.821Z,25.05
2018-11-26T15:01:31.426Z,20.45
2018-11-26T15:03:59.017Z,22.27
2018-11-26T15:06:26.575Z,23.15
2018-11-26T15:08:54.132Z,25.10
2018-11-26T15:11:21.716Z,23.02
2018-11-26T15:13:49.329Z,35.23
2018-11-26T15:16:16.980Z,24.15
2018-11-26T15:18:44.523Z,25.05
2018-11-26T15:21:12.174Z,23.80
2018-11-26T15:23:39.732Z,26.10
2018-11-26T15:26:07.310Z,25.43
2018-11-26T15:28:34.890Z,24.70
2018-11-26T15:31:02.816Z,23.10
2018-11-26T15:33:30.303Z,26.35
2018-11-26T15:35:57.917Z,24.27
2018-11-26T15:38:25.397Z,26.05
2018-11-26T15:40:53.318Z,27.85
2018-11-26T15:43:20.807Z,23.45
2018-11-26T15:45:48.410Z,24.77
2018-11-26T15:48:15.970Z,23.47
2018-11-26T15:50:43.610Z,22.75
2018-11-26T15:53:11.198Z,24.72
2018-11-26T15:55:38.841Z,24.23
2018-11-26T15:58:07.388Z,26.77
2018-11-26T16:00:34.909Z,25.05
2018-11-26T16:03:02.687Z,22.13
2018-11-26T16:05:31.175Z,23.77
2018-11-26T16:08:02.447Z,26.17
2018-11-26T16:10:29.982Z,23.40
2018-11-26T16:12:59.353Z,24.32
2018-11-26T16:15:29.453Z,22.70
2018-11-26T16:17:58.624Z,21.05
2018-11-26T16:20:26.967Z,22.37
2018-11-26T16:22:55.301Z,26.60
2018-11-26T16:25:23.619Z,24.23
2018-11-26T16:27:51.208Z,24.55
2018-11-26T16:30:18.893Z,21.00
2018-11-26T16:32:51.114Z,23.47
2018-11-26T16:35:20.995Z,20.95
2018-11-26T16:37:48.578Z,25.50
2018-11-26T16:40:16.724Z,23.30
2018-11-26T16:42:44.314Z,20.92
2018-11-26T16:45:19.818Z,22.45
2018-11-26T16:47:49.658Z,23.62
2018-11-26T16:50:18.347Z,22.17
2018-11-26T16:52:45.826Z,26.25
2018-11-26T16:55:14.135Z,25.23
2018-11-26T16:57:41.711Z,21.70
2018-11-26T17:00:12.880Z,23.27
2018-11-26T17:02:43.040Z,20.65
2018-11-26T17:05:14.048Z,22.67
2018-11-26T17:07:41.642Z,21.85
2018-11-26T17:10:10.011Z,22.02
2018-11-26T17:12:37.818Z,22.75
2018-11-26T17:15:07.798Z,25.77
2018-11-26T17:17:35.397Z,27.40
2018-11-26T17:20:03.028Z,23.00
2018-11-26T17:22:30.613Z,23.00
2018-11-26T17:24:58.141Z,23.05
2018-11-26T17:27:25.724Z,26.48
2018-11-26T17:29:53.270Z,29.32
2018-11-26T17:32:20.945Z,23.98
2018-11-26T17:34:48.441Z,25.30
2018-11-26T17:37:16.059Z,24.77
2018-11-26T17:39:43.583Z,25.23
2018-11-26T17:42:11.225Z,28.02
2018-11-26T17:44:38.744Z,27.90
2018-11-26T17:47:06.416Z,29.48
2018-11-26T17:49:33.980Z,31.15
2018-11-26T17:52:01.648Z,31.00
2018-11-26T17:54:29.170Z,30.60
2018-11-26T17:56:56.765Z,28.95
2018-11-26T17:59:24.341Z,27.90
2018-11-26T18:01:51.835Z,28.10
2018-11-26T18:04:19.540Z,30.05
2018-11-26T18:06:47.611Z,29.12
2018-11-26T18:09:14.693Z,27.45
2018-11-26T18:11:42.259Z,31.68
2018-11-26T18:14:09.965Z,26.62
2018-11-26T18:16:37.497Z,28.25
2018-11-26T18:19:05.678Z,30.50
2018-11-26T18:21:33.218Z,31.75
2018-11-26T18:24:00.899Z,29.45
2018-11-26T18:26:28.485Z,30.12
2018-11-26T18:28:56.068Z,33.53
2018-11-26T18:31:23.702Z,28.77
2018-11-26T18:33:51.394Z,25.85
2018-11-26T18:36:18.994Z,27.82
2018-11-26T18:38:46.585Z,31.68
2018-11-26T18:41:14.242Z,27.87
2018-11-26T18:43:41.812Z,31.52
2018-11-26T18:46:09.396Z,32.30
2018-11-26T18:48:36.923Z,27.30
2018-11-26T18:51:04.594Z,27.45
2018-11-26T18:53:32.827Z,31.50
2018-11-26T18:56:00.856Z,26.85
2018-11-26T18:58:28.399Z,34.23
2018-11-26T19:00:58.446Z,26.85
2018-11-26T19:03:26.041Z,30.57
2018-11-26T19:05:54.171Z,27.35
2018-11-26T19:08:21.757Z,29.98
2018-11-26T19:10:53.406Z,28.32
2018-11-26T19:13:31.532Z,27.45
2018-11-26T19:18:58.491Z,28.47
2018-11-26T19:21:26.059Z,28.10
2018-11-26T19:23:53.678Z,30.12
2018-11-26T19:26:21.322Z,38.20
2018-11-26T19:28:48.878Z,30.12
2018-11-26T20:00:15.318Z,32.25
2018-11-26T20:02:44.150Z,31.30
2018-11-26T20:05:15.674Z,31.07
2018-11-26T20:07:43.218Z,29.90
2018-11-26T20:13:10.292Z,29.92
2018-11-26T20:15:37.916Z,34.03
2018-11-26T20:18:06.061Z,30.88
2018-11-26T20:20:33.686Z,28.98
2018-11-26T20:23:01.373Z,30.15
2018-11-26T20:25:29.021Z,29.90
2018-11-26T20:27:56.557Z,29.92
2018-11-26T20:33:17.099Z,32.35
2018-11-26T20:35:44.761Z,30.90
2018-11-26T20:38:13.753Z,34.33
2018-11-26T20:40:41.395Z,33.42
2018-11-26T20:43:10.139Z,30.05
2018-11-26T20:45:39.275Z,29.42
2018-11-26T20:48:07.829Z,35.03
2018-11-26T20:50:35.388Z,29.40
2018-11-26T20:53:03.092Z,29.87
2018-11-26T20:55:30.675Z,28.70
2018-11-26T20:57:58.331Z,31.15
2018-11-26T21:00:27.282Z,32.30
2018-11-26T21:03:02.866Z,36.17
2018-11-26T21:05:30.455Z,31.90
2018-11-26T21:07:58.101Z,29.80
2018-11-26T21:10:25.654Z,35.13
2018-11-26T21:12:53.360Z,30.43
2018-11-26T21:15:20.845Z,31.97
2018-11-26T21:17:49.745Z,36.88
2018-11-26T21:20:21.739Z,33.67
2018-11-26T21:22:49.349Z,33.70
2018-11-26T21:25:17.248Z,36.30
2018-11-26T21:27:44.802Z,30.92
2018-11-26T21:30:14.312Z,33.10
2018-11-26T21:32:41.851Z,32.35
2018-11-26T21:35:10.649Z,33.88
2018-11-26T21:37:39.073Z,32.13
2018-11-26T21:40:10.936Z,35.13
2018-11-26T21:42:38.462Z,32.13
2018-11-26T21:45:12.484Z,31.90
2018-11-26T21:47:39.999Z,34.90
2018-11-26T21:50:10.234Z,36.03
2018-11-26T21:52:37.813Z,35.85
2018-11-26T21:55:07.561Z,36.75
2018-11-26T21:57:35.057Z,31.68
2018-11-26T22:00:03.912Z,33.90
2018-11-26T22:02:31.467Z,33.70
2018-11-26T22:04:59.125Z,34.13
2018-11-26T22:07:26.603Z,37.75
2018-11-26T22:09:54.190Z,31.33
2018-11-26T22:12:21.675Z,34.27
2018-11-26T22:14:49.261Z,33.40
2018-11-26T22:17:16.876Z,35.08
2018-11-26T22:19:44.376Z,36.08
2018-11-26T22:22:11.953Z,35.58
2018-11-26T22:24:39.449Z,37.03
2018-11-26T22:27:07.021Z,35.17
2018-11-26T22:29:34.473Z,35.50
2018-11-26T22:32:02.095Z,36.63
2018-11-26T22:34:29.594Z,34.03
2018-11-26T22:36:57.165Z,37.20
2018-11-26T22:39:24.665Z,33.95
2018-11-26T22:41:52.216Z,40.20
2018-11-26T22:44:19.672Z,34.15
2018-11-26T22:46:47.243Z,36.73
2018-11-26T22:49:14.736Z,40.15
2018-11-26T22:51:42.327Z,36.80
2018-11-26T22:54:09.800Z,35.25
2018-11-26T22:56:37.354Z,36.30
2018-11-26T22:59:05.315Z,34.10
2018-11-26T23:01:32.842Z,36.53
2018-11-26T23:04:00.348Z,39.53
2018-11-26T23:09:01.500Z,32.42
2018-11-26T23:11:29.076Z,32.58
2018-11-26T23:13:56.638Z,38.90
2018-11-26T23:16:24.171Z,34.48
2018-11-26T23:18:52.212Z,35.35
2018-11-26T23:21:19.752Z,34.43
2018-11-26T23:23:47.316Z,30.88
2018-11-26T23:26:15.104Z,35.55
2018-11-26T23:28:42.718Z,40.33
2018-11-26T23:31:10.218Z,37.33
2018-11-26T23:33:37.755Z,35.50
2018-11-26T23:36:05.269Z,40.90
2018-11-26T23:38:32.800Z,36.10
2018-11-26T23:41:00.335Z,36.10
2018-11-26T23:43:27.879Z,34.90
2018-11-26T23:46:00.484Z,38.65
2018-11-26T23:48:28.079Z,38.13
2018-11-26T23:50:55.540Z,36.50
2018-11-26T23:53:23.124Z,40.08
2018-11-26T23:55:50.601Z,39.08
2018-11-26T23:58:18.807Z,35.10
